Time;durP1;ratioP1;P1;durP2;ratioP2;P2;SDS_P1;SDS_P2;PMS_P1;PMS_P2;Temp;Humidity;BMP_temperature;BMP_pressure;BME280_temperature;BME280_humidity;BME280_pressure;Samples;Min_cycle;Max_cycle;Signal;HPM_P1;HPM_P2
2022/09/28 00:01:17;;;;;;;4.10;3.05;;;7.80;99.90;;;;;;5044484;28;20608;-74
2022/09/28 00:03:44;;;;;;;3.63;3.13;;;7.80;99.90;;;;;;5049714;28;20049;-74
2022/09/28 00:06:12;;;;;;;5.50;3.63;;;7.80;99.90;;;;;;5046705;28;20050;-74
2022/09/28 00:08:38;;;;;;;3.33;3.03;;;7.80;99.90;;;;;;5045118;28;20063;-74
2022/09/28 00:11:06;;;;;;;3.63;3.33;;;7.80;99.90;;;;;;5039392;28;20247;-74
2022/09/28 00:13:33;;;;;;;2.80;2.50;;;7.80;99.90;;;;;;5047741;28;20124;-74
2022/09/28 00:16:11;;;;;;;4.22;3.83;;;7.70;99.90;;;;;;5050237;28;20125;-74
2022/09/28 00:18:36;;;;;;;4.43;3.42;;;7.70;99.90;;;;;;5041978;28;20048;-74
2022/09/28 00:21:11;;;;;;;4.85;3.53;;;7.60;99.90;;;;;;5043541;28;20049;-74
2022/09/28 00:26:22;;;;;;;3.35;3.00;;;7.50;99.90;;;;;;5054443;28;20063;-74
2022/09/28 00:28:53;;;;;;;3.78;2.90;;;7.40;99.90;;;;;;5044306;28;20085;-74
2022/09/28 00:31:19;;;;;;;4.95;3.40;;;7.40;99.90;;;;;;5041600;28;21123;-74
2022/09/28 00:33:48;;;;;;;4.30;3.30;;;7.30;99.90;;;;;;5048054;28;20227;-74
2022/09/28 00:36:13;;;;;;;3.40;2.97;;;7.30;99.90;;;;;;5046983;28;20056;-74
2022/09/28 00:38:39;;;;;;;3.92;3.00;;;7.30;99.90;;;;;;5048529;28;20666;-74
2022/09/28 00:41:05;;;;;;;3.65;3.35;;;7.30;99.90;;;;;;5043030;28;20171;-74
2022/09/28 00:43:31;;;;;;;3.95;3.55;;;7.30;99.90;;;;;;5040705;28;20047;-74
2022/09/28 00:46:09;;;;;;;3.78;3.30;;;7.40;99.90;;;;;;5043720;28;20942;-74
2022/09/28 00:48:38;;;;;;;3.25;3.00;;;7.40;99.90;;;;;;5053652;28;20138;-74
2022/09/28 00:51:09;;;;;;;2.70;2.50;;;7.40;99.90;;;;;;5041048;28;20075;-74
2022/09/28 00:53:38;;;;;;;3.20;2.90;;;7.60;99.90;;;;;;5045165;28;20311;-74
2022/09/28 00:56:16;;;;;;;5.20;4.03;;;6.60;99.90;;;;;;5043827;28;20122;-74
2022/09/28 00:58:48;;;;;;;4.85;3.75;;;7.30;99.90;;;;;;5037796;28;20045;-74
2022/09/28 01:01:15;;;;;;;4.15;3.85;;;7.30;99.90;;;;;;5048495;28;20214;-74
2022/09/28 01:03:44;;;;;;;4.88;3.42;;;7.30;99.90;;;;;;5049750;28;20048;-74
2022/09/28 01:06:15;;;;;;;3.72;3.42;;;7.30;99.90;;;;;;5050696;28;20385;-74
2022/09/28 01:08:43;;;;;;;4.07;3.28;;;7.30;99.90;;;;;;5042406;28;20048;-74
2022/09/28 01:11:09;;;;;;;4.15;3.40;;;7.30;99.90;;;;;;5053089;28;21174;-74
2022/09/28 01:13:35;;;;;;;4.40;4.00;;;7.20;99.90;;;;;;5053256;28;20147;-74
2022/09/28 01:16:06;;;;;;;7.85;4.10;;;7.20;99.90;;;;;;5053783;28;20052;-74
2022/09/28 01:18:32;;;;;;;5.15;4.55;;;7.20;99.90;;;;;;5054325;28;20861;-74
2022/09/28 01:21:07;;;;;;;6.68;4.53;;;7.20;99.90;;;;;;5046571;28;20045;-74
2022/09/28 01:23:38;;;;;;;3.95;3.17;;;7.20;99.90;;;;;;5047730;28;20040;-74
2022/09/28 01:26:33;;;;;;;4.68;3.67;;;7.20;99.90;;;;;;5048539;28;20147;-74
2022/09/28 01:29:10;;;;;;;3.22;2.92;;;7.20;99.90;;;;;;5049981;28;20118;-75
2022/09/28 01:31:40;;;;;;;3.30;2.97;;;7.10;99.90;;;;;;5049355;28;20095;-74
2022/09/28 01:34:18;;;;;;;3.22;2.92;;;7.10;99.90;;;;;;5043651;28;20037;-74
2022/09/28 01:36:50;;;;;;;3.95;3.20;;;7.10;99.90;;;;;;5048165;28;20057;-75
2022/09/28 01:39:24;;;;;;;3.40;3.10;;;7.00;99.90;;;;;;5050919;28;20044;-74
2022/09/28 01:41:53;;;;;;;3.88;3.22;;;7.00;99.90;;;;;;5054585;28;20107;-74
2022/09/28 01:44:20;;;;;;;3.75;3.10;;;7.00;99.90;;;;;;5054770;28;20826;-75
2022/09/28 01:46:48;;;;;;;4.75;3.00;;;7.20;99.90;;;;;;5057246;28;20056;-74
2022/09/28 01:49:30;;;;;;;3.05;2.75;;;7.00;99.90;;;;;;5044329;28;20088;-73
2022/09/28 01:52:23;;;;;;;3.15;2.70;;;7.00;99.90;;;;;;5049064;28;20067;-74
2022/09/28 01:54:55;;;;;;;;;;;6.90;99.90;;;;;;5049116;28;20048;-74
2022/09/28 01:57:41;;;;;;;4.10;3.42;;;6.80;99.90;;;;;;5052801;28;20665;-74
2022/09/28 02:00:12;;;;;;;8.50;3.92;;;6.70;99.90;;;;;;5041652;28;20056;-74
2022/09/28 02:02:47;;;;;;;29.55;7.75;;;6.70;99.90;;;;;;5039605;28;20073;-74
2022/09/28 02:05:19;;;;;;;56.45;8.98;;;6.60;99.90;;;;;;5053957;28;20056;-75
2022/09/28 02:08:02;;;;;;;7.47;4.00;;;6.60;99.90;;;;;;5047490;28;20451;-75
2022/09/28 02:11:07;;;;;;;10.60;4.22;;;6.60;99.90;;;;;;5045191;28;20059;-75
2022/09/28 02:13:41;;;;;;;9.63;3.38;;;6.60;99.90;;;;;;5044302;28;20114;-74
2022/09/28 02:16:36;;;;;;;2.17;1.88;;;6.50;99.90;;;;;;5049741;28;20122;-74
2022/09/28 02:19:04;;;;;;;2.13;1.92;;;6.50;99.90;;;;;;5043721;28;20130;-74
2022/09/28 02:21:54;;;;;;;2.28;1.80;;;6.60;99.90;;;;;;5043808;28;20056;-74
2022/09/28 02:24:27;;;;;;;6.20;2.95;;;6.70;99.90;;;;;;5047845;28;20476;-74
2022/09/28 02:26:57;;;;;;;3.90;3.03;;;6.70;99.90;;;;;;5053148;28;20048;-74
2022/09/28 02:29:23;;;;;;;4.78;2.83;;;6.70;99.90;;;;;;5048288;28;20059;-74
2022/09/28 02:31:50;;;;;;;11.23;4.82;;;6.70;99.90;;;;;;5048944;28;20048;-74
2022/09/28 02:34:16;;;;;;;12.75;4.07;;;6.90;99.90;;;;;;5047409;28;20048;-74
2022/09/28 02:36:44;;;;;;;11.45;4.70;;;6.80;99.90;;;;;;5046596;28;20048;-74
2022/09/28 02:39:17;;;;;;;21.13;5.13;;;6.80;99.90;;;;;;5044728;28;20045;-74
2022/09/28 02:42:10;;;;;;;19.27;5.70;;;6.90;99.90;;;;;;5046177;28;20044;-74
2022/09/28 02:44:52;;;;;;;48.22;7.90;;;6.90;99.90;;;;;;5041028;28;20143;-74
2022/09/28 02:47:51;;;;;;;74.28;12.23;;;7.10;99.90;;;;;;5042298;28;21913;-74
2022/09/28 02:51:07;;;;;;;84.35;13.00;;;7.20;99.90;;;;;;5054397;28;20053;-74
2022/09/28 02:53:32;;;;;;;26.60;9.10;;;7.30;99.90;;;;;;5035262;28;20048;-74
2022/09/28 02:56:24;;;;;;;43.20;11.75;;;7.40;99.90;;;;;;5057521;28;20138;-74
2022/09/28 02:59:17;;;;;;;65.07;13.75;;;7.40;99.90;;;;;;5043967;28;20060;-74
2022/09/28 03:02:00;;;;;;;40.60;11.73;;;7.40;99.90;;;;;;5053289;28;20098;-74
2022/09/28 03:04:35;;;;;;;41.75;10.60;;;7.40;99.90;;;;;;5058239;28;20583;-74
2022/09/28 03:07:15;;;;;;;32.70;10.00;;;7.50;99.90;;;;;;5059977;28;20091;-74
2022/09/28 03:09:53;;;;;;;39.53;11.35;;;7.40;99.90;;;;;;5053766;28;20866;-74
2022/09/28 03:12:22;;;;;;;28.92;9.63;;;8.10;99.90;;;;;;5040464;28;20084;-74
2022/09/28 03:15:05;;;;;;;50.60;10.30;;;7.50;99.90;;;;;;5052050;28;20467;-74
2022/09/28 03:17:30;;;;;;;36.78;9.80;;;7.50;99.90;;;;;;5052556;28;20075;-74
2022/09/28 03:19:56;;;;;;;24.17;8.40;;;7.50;99.90;;;;;;5055924;28;20695;-74
2022/09/28 03:22:22;;;;;;;9.02;5.13;;;7.50;99.90;;;;;;5045684;28;20090;-74
2022/09/28 03:24:47;;;;;;;33.90;9.45;;;7.90;99.90;;;;;;5056055;28;20052;-74
2022/09/28 03:27:13;;;;;;;43.58;8.52;;;7.50;99.90;;;;;;5054080;28;20059;-75
2022/09/28 03:29:39;;;;;;;17.90;7.28;;;7.60;99.90;;;;;;5044474;28;20045;-74
2022/09/28 03:32:05;;;;;;;43.78;8.43;;;7.40;99.90;;;;;;5057220;28;20052;-74
2022/09/28 03:34:30;;;;;;;28.95;8.13;;;7.80;99.90;;;;;;5052566;28;20080;-74
2022/09/28 03:36:56;;;;;;;24.40;7.53;;;7.40;99.90;;;;;;5057424;28;20052;-74
2022/09/28 03:39:22;;;;;;;55.58;10.93;;;7.40;99.90;;;;;;5054960;28;20051;-74
2022/09/28 03:41:47;;;;;;;22.17;6.93;;;7.40;99.90;;;;;;5058236;28;20059;-74
2022/09/28 03:44:13;;;;;;;17.17;6.60;;;7.40;99.90;;;;;;5051474;28;20063;-74
2022/09/28 03:46:39;;;;;;;48.08;10.48;;;7.40;99.90;;;;;;5047697;28;20045;-74
2022/09/28 03:49:04;;;;;;;32.45;7.07;;;7.30;99.90;;;;;;5051622;28;20208;-74
2022/09/28 03:51:30;;;;;;;43.83;8.13;;;7.30;99.90;;;;;;5053884;28;20049;-74
2022/09/28 03:53:56;;;;;;;17.83;6.75;;;7.30;99.90;;;;;;5054474;28;20123;-74
2022/09/28 03:56:22;;;;;;;14.63;5.45;;;7.50;99.90;;;;;;5058535;28;20484;-75
2022/09/28 03:58:47;;;;;;;15.60;6.07;;;7.30;99.90;;;;;;5054084;28;20805;-75
2022/09/28 04:01:16;;;;;;;13.38;4.88;;;7.30;99.90;;;;;;5057444;28;20051;-75
2022/09/28 04:03:43;;;;;;;41.55;9.32;;;7.30;99.90;;;;;;5055916;28;20052;-74
2022/09/28 04:06:09;;;;;;;16.30;6.28;;;7.30;99.90;;;;;;5052204;28;20131;-74
2022/09/28 04:08:34;;;;;;;17.77;6.88;;;7.30;99.90;;;;;;5052562;28;20040;-74
2022/09/28 04:11:00;;;;;;;8.15;4.88;;;7.20;99.90;;;;;;5051557;28;20413;-74
2022/09/28 04:13:28;;;;;;;29.77;6.88;;;7.30;99.90;;;;;;5051982;28;20044;-74
2022/09/28 04:15:58;;;;;;;23.67;7.38;;;7.20;99.90;;;;;;5054291;28;20049;-74
2022/09/28 04:18:24;;;;;;;32.25;7.43;;;7.20;99.90;;;;;;5055815;28;20048;-74
2022/09/28 04:21:07;;;;;;;23.20;6.75;;;7.20;99.90;;;;;;5047534;28;20033;-74
2022/09/28 04:23:35;;;;;;;19.80;7.50;;;7.30;99.90;;;;;;5052371;28;20041;-74
2022/09/28 04:26:02;;;;;;;25.67;8.00;;;7.30;99.90;;;;;;5043242;28;20825;-74
2022/09/28 04:31:16;;;;;;;12.60;5.70;;;7.30;99.90;;;;;;5051656;28;20267;-74
2022/09/28 04:33:42;;;;;;;41.15;10.93;;;7.30;99.90;;;;;;5052136;28;20378;-75
2022/09/28 04:36:09;;;;;;;35.78;8.88;;;7.30;99.90;;;;;;5047486;28;20513;-74
2022/09/28 04:38:36;;;;;;;37.67;10.02;;;7.30;99.90;;;;;;5041843;28;20580;-75
2022/09/28 04:41:02;;;;;;;39.33;8.73;;;7.30;99.90;;;;;;5049719;28;20044;-74
2022/09/28 04:43:28;;;;;;;69.57;11.50;;;7.30;99.90;;;;;;5037099;28;20045;-75
2022/09/28 04:46:01;;;;;;;42.40;8.82;;;7.50;99.90;;;;;;5048190;28;20082;-74
2022/09/28 04:48:27;;;;;;;;;;;7.40;99.90;;;;;;5048198;28;20057;-75
2022/09/28 04:50:58;;;;;;;47.85;10.85;;;7.30;99.90;;;;;;5045119;28;19924;-74
2022/09/28 04:53:25;;;;;;;70.75;13.98;;;7.90;99.90;;;;;;5045002;28;20032;-75
2022/09/28 04:56:10;;;;;;;52.13;9.50;;;7.40;99.90;;;;;;5047635;28;20143;-74
2022/09/28 04:58:37;;;;;;;31.10;8.02;;;7.40;99.90;;;;;;5043993;28;20071;-75
2022/09/28 05:01:05;;;;;;;33.08;10.13;;;7.40;99.90;;;;;;5050340;28;20092;-75
2022/09/28 05:03:32;;;;;;;17.90;8.15;;;7.40;99.90;;;;;;5048843;28;20041;-75
2022/09/28 05:05:59;;;;;;;68.40;13.63;;;7.50;99.90;;;;;;5049106;28;20213;-74
2022/09/28 05:08:25;;;;;;;75.13;13.98;;;7.40;99.90;;;;;;5044004;28;20043;-75
2022/09/28 05:11:02;;;;;;;34.30;9.57;;;7.40;99.90;;;;;;5043563;28;20183;-75
2022/09/28 05:13:29;;;;;;;40.70;9.52;;;8.40;99.90;;;;;;5044264;28;20056;-75
2022/09/28 05:15:56;;;;;;;18.05;7.72;;;7.40;99.90;;;;;;5047239;28;20239;-75
2022/09/28 05:18:23;;;;;;;54.95;11.27;;;7.40;99.90;;;;;;5047645;28;20041;-75
2022/09/28 05:20:49;;;;;;;66.22;12.05;;;7.40;99.90;;;;;;5046156;28;20040;-74
2022/09/28 05:23:15;;;;;;;53.80;10.90;;;7.40;99.90;;;;;;5048740;28;20468;-75
2022/09/28 05:25:41;;;;;;;105.78;13.77;;;7.30;99.90;;;;;;5049688;28;20828;-75
2022/09/28 05:28:08;;;;;;;93.05;13.13;;;7.30;99.90;;;;;;5053471;28;20128;-75
2022/09/28 05:30:34;;;;;;;111.43;14.40;;;7.40;99.90;;;;;;5045100;28;20810;-74
2022/09/28 05:33:01;;;;;;;127.30;15.30;;;7.20;99.90;;;;;;5057395;28;20056;-74
2022/09/28 05:35:26;;;;;;;37.50;9.05;;;7.30;99.90;;;;;;5052692;28;20052;-75
2022/09/28 05:37:53;;;;;;;64.03;10.82;;;7.30;99.90;;;;;;5055887;28;20126;-74
2022/09/28 05:40:19;;;;;;;35.72;8.93;;;7.30;99.90;;;;;;5054025;28;20049;-74
2022/09/28 05:42:45;;;;;;;64.40;12.88;;;7.30;99.90;;;;;;5044797;28;20049;-74
2022/09/28 05:45:11;;;;;;;86.40;12.27;;;7.30;99.90;;;;;;5043335;28;20080;-73
2022/09/28 05:47:42;;;;;;;76.00;12.50;;;7.30;99.90;;;;;;5057441;28;20613;-74
2022/09/28 05:50:10;;;;;;;13.43;5.93;;;7.30;99.90;;;;;;5042495;28;20147;-75
2022/09/28 05:52:39;;;;;;;17.05;7.57;;;7.40;99.90;;;;;;5060563;28;20819;-75
2022/09/28 05:55:06;;;;;;;13.68;6.47;;;7.40;99.90;;;;;;5053541;28;20874;-74
2022/09/28 05:57:32;;;;;;;38.83;8.15;;;7.40;99.90;;;;;;5057185;28;20048;-75
2022/09/28 05:59:58;;;;;;;47.75;10.07;;;7.40;99.90;;;;;;5050339;28;20049;-75
2022/09/28 06:02:24;;;;;;;11.77;5.45;;;7.40;99.90;;;;;;5045528;28;20071;-75
2022/09/28 06:04:50;;;;;;;59.58;10.73;;;7.40;99.90;;;;;;5042307;28;20052;-74
2022/09/28 06:07:16;;;;;;;22.33;7.03;;;7.40;99.90;;;;;;5049598;28;20426;-74
2022/09/28 06:09:42;;;;;;;31.45;7.97;;;7.40;99.90;;;;;;5041677;28;20082;-74
2022/09/28 06:12:08;;;;;;;45.35;10.82;;;7.40;99.90;;;;;;5046653;28;20041;-74
2022/09/28 06:14:34;;;;;;;34.70;8.82;;;7.40;99.90;;;;;;5041242;28;20098;-74
2022/09/28 06:16:59;;;;;;;19.98;6.55;;;7.40;99.90;;;;;;5042210;28;20765;-70
2022/09/28 06:19:25;;;;;;;26.48;6.93;;;7.50;99.90;;;;;;5050161;28;20040;-72
2022/09/28 06:21:51;;;;;;;23.00;7.97;;;7.50;99.90;;;;;;5041607;28;20709;-74
2022/09/28 06:24:17;;;;;;;24.63;7.40;;;7.60;99.90;;;;;;5049505;28;20826;-86
2022/09/28 06:26:42;;;;;;;21.15;7.18;;;7.50;99.90;;;;;;5038839;28;20053;-78
2022/09/28 06:44:29;;;;;;;51.28;12.73;;;8.20;99.90;;;;;;5081557;27;20503;-76
2022/09/28 06:46:55;;;;;;;30.10;10.35;;;8.00;99.90;;;;;;5065810;28;20709;-77
2022/09/28 06:49:21;;;;;;;65.60;14.30;;;8.00;99.90;;;;;;5071140;28;20044;-78
2022/09/28 06:51:46;;;;;;;78.72;13.18;;;7.90;99.90;;;;;;5057308;28;20057;-73
2022/09/28 06:54:12;;;;;;;52.10;11.82;;;7.90;99.90;;;;;;5059773;28;20091;-77
2022/09/28 06:56:38;;;;;;;22.92;8.43;;;7.90;99.90;;;;;;5073816;28;20044;-77
2022/09/28 06:59:03;;;;;;;80.47;10.98;;;8.00;99.90;;;;;;5059111;28;20051;-77
2022/09/28 07:01:29;;;;;;;71.43;10.70;;;8.90;99.90;;;;;;5065861;28;20118;-78
2022/09/28 07:03:56;;;;;;;170.68;19.98;;;8.10;99.90;;;;;;5062652;28;20554;-78
2022/09/28 07:06:25;;;;;;;142.60;17.08;;;8.10;99.90;;;;;;5068500;28;20094;-78
2022/09/28 07:08:50;;;;;;;24.67;9.18;;;8.20;99.90;;;;;;5065333;28;20591;-77
2022/09/28 07:11:19;;;;;;;71.70;11.38;;;8.30;99.90;;;;;;5067348;28;20124;-78
2022/09/28 07:13:44;;;;;;;60.33;10.65;;;8.40;99.90;;;;;;5069012;28;20044;-78
2022/09/28 07:16:11;;;;;;;40.42;8.95;;;8.50;99.90;;;;;;5071828;28;20051;-78
2022/09/28 07:18:37;;;;;;;89.05;12.45;;;8.60;99.90;;;;;;5070459;28;20117;-78
2022/09/28 07:21:06;;;;;;;97.20;14.27;;;8.50;99.90;;;;;;5060220;28;20536;-77
2022/09/28 07:23:32;;;;;;;43.15;8.75;;;8.60;99.90;;;;;;5071671;28;20079;-77
2022/09/28 07:26:03;;;;;;;82.82;12.25;;;8.70;99.90;;;;;;5071425;28;20127;-78
2022/09/28 07:28:30;;;;;;;102.10;12.32;;;8.70;99.90;;;;;;5070394;28;20102;-78
2022/09/28 07:30:56;;;;;;;135.90;16.90;;;8.80;99.90;;;;;;5067595;28;20052;-85
2022/09/28 07:33:30;;;;;;;40.13;8.65;;;8.80;99.90;;;;;;5070728;28;20605;-84
2022/09/28 07:35:55;;;;;;;33.88;9.00;;;8.90;99.90;;;;;;5065420;28;20520;-84
2022/09/28 07:38:21;;;;;;;146.50;17.83;;;9.30;99.90;;;;;;5071476;28;20040;-85
2022/09/28 07:43:31;;;;;;;44.58;9.48;;;9.40;99.90;;;;;;5070636;28;20064;-76
2022/09/28 07:45:57;;;;;;;50.80;11.32;;;9.60;99.90;;;;;;5052065;28;20075;-77
2022/09/28 07:48:23;;;;;;;17.65;6.20;;;9.70;99.90;;;;;;5060060;28;20056;-77
2022/09/28 07:50:56;;;;;;;12.13;5.55;;;9.80;99.90;;;;;;5059815;28;20059;-76
2022/09/28 07:53:23;;;;;;;30.63;8.47;;;9.80;99.90;;;;;;5060959;28;20105;-77
2022/09/28 07:56:04;;;;;;;27.23;6.65;;;9.90;99.90;;;;;;5092096;28;20155;-77
2022/09/28 07:58:31;;;;;;;51.45;8.15;;;10.10;99.90;;;;;;5061045;28;20131;-77
2022/09/28 08:00:59;;;;;;;49.67;9.85;;;10.10;99.90;;;;;;5058440;28;20060;-77
2022/09/28 08:03:26;;;;;;;26.13;7.88;;;10.30;99.90;;;;;;5057970;28;20057;-77
2022/09/28 08:06:00;;;;;;;27.05;6.30;;;10.30;99.90;;;;;;5055937;28;20052;-77
2022/09/28 08:08:26;;;;;;;19.73;6.22;;;10.30;99.90;;;;;;5055042;28;20056;-78
2022/09/28 08:10:52;;;;;;;31.27;6.80;;;10.30;99.90;;;;;;5058238;28;20533;-77
2022/09/28 08:13:18;;;;;;;14.13;6.25;;;9.70;99.90;;;;;;5060403;28;20315;-77
2022/09/28 08:15:50;;;;;;;10.55;5.50;;;10.40;99.90;;;;;;5056375;28;20110;-77
2022/09/28 08:18:16;;;;;;;11.18;4.93;;;10.50;99.90;;;;;;5061275;28;20111;-77
2022/09/28 08:23:25;;;;;;;13.07;5.30;;;10.50;99.90;;;;;;5057472;28;20186;-77
2022/09/28 08:25:52;;;;;;;15.20;5.47;;;10.50;99.90;;;;;;5059048;28;20516;-77
2022/09/28 08:28:20;;;;;;;7.38;5.63;;;10.60;99.90;;;;;;5057309;28;20049;-77
2022/09/28 08:30:47;;;;;;;15.13;6.55;;;10.80;99.90;;;;;;5090187;28;20044;-77
2022/09/28 08:33:14;;;;;;;42.42;8.80;;;11.00;99.90;;;;;;5056060;28;20045;-76
2022/09/28 08:35:40;;;;;;;8.65;5.45;;;11.30;99.90;;;;;;5056056;28;20499;-78
2022/09/28 08:38:08;;;;;;;7.93;5.32;;;11.50;99.90;;;;;;5053708;28;20152;-78
2022/09/28 08:41:26;;;;;;;7.03;5.38;;;11.70;99.90;;;;;;5049355;28;20055;-76
2022/09/28 08:44:08;;;;;;;5.00;4.50;;;11.60;99.90;;;;;;5042180;28;20739;-77
2022/09/28 08:46:45;;;;;;;5.20;4.00;;;11.50;99.90;;;;;;5047904;28;20099;-77
2022/09/28 08:49:29;;;;;;;5.85;4.65;;;11.50;99.90;;;;;;5056076;28;20059;-77
2022/09/28 08:52:02;;;;;;;6.72;4.72;;;11.50;99.90;;;;;;5053498;28;20139;-77
2022/09/28 08:54:47;;;;;;;6.10;4.23;;;11.60;99.90;;;;;;5055905;28;20237;-77
2022/09/28 08:57:25;;;;;;;5.65;4.68;;;11.60;99.90;;;;;;5053229;28;20284;-77
2022/09/28 08:59:56;;;;;;;6.50;5.00;;;11.50;99.90;;;;;;5047911;28;20044;-77
2022/09/28 09:02:29;;;;;;;7.32;5.38;;;11.50;99.90;;;;;;5052064;28;20033;-76
2022/09/28 09:04:57;;;;;;;6.38;4.75;;;11.50;99.90;;;;;;5050896;28;20044;-77
2022/09/28 09:07:47;;;;;;;7.15;5.25;;;11.50;99.90;;;;;;5055842;28;20052;-77
2022/09/28 09:10:27;;;;;;;6.55;4.85;;;11.70;99.90;;;;;;5056296;28;20151;-76
2022/09/28 09:13:04;;;;;;;6.93;4.20;;;11.70;99.90;;;;;;5053766;28;20059;-76
2022/09/28 09:15:48;;;;;;;4.47;4.07;;;11.80;99.90;;;;;;5053973;28;20048;-77
2022/09/28 09:18:23;;;;;;;;;;;12.50;99.90;;;;;;5053502;28;20804;-76
2022/09/28 09:20:58;;;;;;;5.22;4.05;;;12.80;99.90;;;;;;5046227;28;20499;-76
2022/09/28 09:23:35;;;;;;;4.20;3.80;;;13.00;99.90;;;;;;5047592;28;20040;-76
2022/09/28 09:26:14;;;;;;;4.53;4.03;;;13.20;99.90;;;;;;5053901;28;20052;-76
2022/09/28 09:28:55;;;;;;;5.65;3.35;;;13.20;99.90;;;;;;5052647;28;20044;-77
2022/09/28 09:31:27;;;;;;;5.97;4.28;;;13.50;99.90;;;;;;5056099;28;20076;-76
2022/09/28 09:34:11;;;;;;;5.38;4.00;;;13.30;99.90;;;;;;5057140;28;20380;-77
2022/09/28 09:37:05;;;;;;;4.78;4.22;;;13.30;99.90;;;;;;5056331;28;20048;-77
2022/09/28 09:39:57;;;;;;;5.32;3.88;;;14.20;99.90;;;;;;5058300;28;20524;-78
2022/09/28 09:42:29;;;;;;;4.68;3.80;;;16.10;99.90;;;;;;5057271;28;20070;-77
2022/09/28 09:45:10;;;;;;;5.18;3.72;;;16.70;99.90;;;;;;5057288;28;20055;-77
2022/09/28 09:47:49;;;;;;;4.13;3.45;;;16.40;99.90;;;;;;5049960;28;20123;-77
2022/09/28 09:50:31;;;;;;;4.78;3.83;;;16.10;99.90;;;;;;5045938;28;20102;-77
2022/09/28 09:53:14;;;;;;;4.70;3.50;;;16.20;99.90;;;;;;5046548;28;20584;-77
2022/09/28 09:55:45;;;;;;;4.57;3.17;;;15.80;99.90;;;;;;5057112;28;20053;-78
2022/09/28 09:58:16;;;;;;;4.60;3.42;;;15.10;99.90;;;;;;5058576;28;20056;-77
2022/09/28 10:00:45;;;;;;;5.28;3.90;;;15.20;99.90;;;;;;5054158;28;20645;-77
2022/09/28 10:03:27;;;;;;;4.05;3.33;;;15.30;99.90;;;;;;5053798;28;20105;-77
2022/09/28 10:06:15;;;;;;;6.82;4.78;;;16.40;99.90;;;;;;5042070;28;20888;-77
2022/09/28 10:08:47;;;;;;;5.45;3.85;;;16.30;99.90;;;;;;5082751;28;20378;-77
2022/09/28 10:11:19;;;;;;;3.85;3.15;;;15.70;99.90;;;;;;5057880;28;20663;-77
2022/09/28 10:13:48;;;;;;;4.10;3.70;;;15.80;99.90;;;;;;5042487;28;20615;-77
2022/09/28 10:16:17;;;;;;;5.35;3.13;;;15.70;99.90;;;;;;5057700;28;20064;-77
2022/09/28 10:18:43;;;;;;;4.13;3.33;;;16.20;99.90;;;;;;5056878;28;20052;-76
2022/09/28 10:21:13;;;;;;;5.15;3.83;;;16.10;99.90;;;;;;5057255;28;20751;-76
2022/09/28 10:23:40;;;;;;;4.47;3.10;;;15.70;99.90;;;;;;5056306;28;20071;-77
2022/09/28 10:26:14;;;;;;;3.05;2.75;;;15.60;99.90;;;;;;5057346;28;20049;-77
2022/09/28 10:28:53;;;;;;;3.03;2.72;;;15.70;99.90;;;;;;5054323;28;20044;-77
2022/09/28 10:31:35;;;;;;;3.20;2.35;;;17.10;99.90;;;;;;5048999;28;20139;-77
2022/09/28 10:34:01;;;;;;;3.63;2.50;;;18.50;99.90;;;;;;5057131;28;20119;-76
2022/09/28 10:36:27;;;;;;;4.07;2.80;;;18.90;99.90;;;;;;5056330;28;20048;-76
2022/09/28 10:38:54;;;;;;;3.42;2.83;;;18.80;99.90;;;;;;5055482;28;20056;-75
2022/09/28 10:41:21;;;;;;;3.17;2.70;;;17.80;99.90;;;;;;5058113;28;20060;-76
2022/09/28 10:44:05;;;;;;;2.72;2.28;;;17.00;99.90;;;;;;5055364;28;20160;-76
2022/09/28 10:46:35;;;;;;;4.57;2.38;;;16.40;99.90;;;;;;5057004;28;20045;-76
2022/09/28 10:49:16;;;;;;;2.20;1.60;;;15.90;99.90;;;;;;5050915;28;20049;-75
2022/09/28 10:51:43;;;;;;;2.22;2.03;;;15.40;99.90;;;;;;5051471;28;20040;-76
2022/09/28 10:54:23;;;;;;;3.85;1.88;;;15.30;99.90;;;;;;5056803;28;20041;-76
2022/09/28 10:56:51;;;;;;;1.60;1.33;;;15.20;99.90;;;;;;5043620;28;20072;-76
2022/09/28 10:59:28;;;;;;;1.50;1.40;;;15.10;99.90;;;;;;5055461;28;20052;-76
2022/09/28 11:02:11;;;;;;;2.90;1.20;;;14.90;99.90;;;;;;5087722;28;20139;-76
2022/09/28 11:04:41;;;;;;;1.20;1.10;;;14.80;99.90;;;;;;5056023;28;20044;-76
2022/09/28 11:07:26;;;;;;;1.55;1.42;;;14.60;99.90;;;;;;5089213;28;20143;-76
2022/09/28 11:09:53;;;;;;;1.60;1.50;;;14.60;99.90;;;;;;5049559;28;20127;-76
2022/09/28 11:12:25;;;;;;;2.58;1.83;;;14.40;99.90;;;;;;5054674;28;20063;-76
2022/09/28 11:15:06;;;;;;;3.22;2.10;;;14.40;99.90;;;;;;5050544;28;20551;-76
2022/09/28 11:17:42;;;;;;;3.03;1.75;;;14.40;99.90;;;;;;5051552;28;20599;-75
2022/09/28 11:20:23;;;;;;;1.95;1.77;;;14.40;99.90;;;;;;5054398;28;20055;-76
2022/09/28 11:22:50;;;;;;;3.35;1.67;;;14.40;99.90;;;;;;5056598;28;20049;-75
2022/09/28 11:25:16;;;;;;;2.35;2.15;;;14.40;99.90;;;;;;5050891;28;20041;-75
2022/09/28 11:28:03;;;;;;;5.40;1.75;;;14.50;99.90;;;;;;5060957;28;20122;-75
2022/09/28 11:30:39;;;;;;;3.50;1.70;;;14.50;99.90;;;;;;5053322;28;20088;-76
2022/09/28 11:33:16;;;;;;;1.80;1.60;;;14.60;99.90;;;;;;5055387;28;20094;-75
2022/09/28 11:36:11;;;;;;;1.85;1.50;;;14.60;99.90;;;;;;5055514;28;20119;-76
2022/09/28 11:38:55;;;;;;;1.40;1.08;;;14.70;99.90;;;;;;5060266;28;20094;-77
2022/09/28 11:41:39;;;;;;;1.60;1.00;;;14.80;99.90;;;;;;5050582;28;20079;-75
2022/09/28 11:44:17;;;;;;;1.10;0.90;;;14.90;99.90;;;;;;5052129;28;20143;-75
2022/09/28 11:46:42;;;;;;;1.67;1.00;;;15.60;99.90;;;;;;5052879;28;20617;-75
2022/09/28 11:49:42;;;;;;;1.50;0.50;;;15.00;99.90;;;;;;5058768;28;20048;-75
2022/09/28 11:52:26;;;;;;;1.65;0.40;;;15.10;99.90;;;;;;5060578;28;20182;-75
2022/09/28 11:55:31;;;;;;;0.45;0.40;;;15.10;99.90;;;;;;5049541;28;20489;-75
2022/09/28 11:58:14;;;;;;;1.48;0.50;;;15.10;99.90;;;;;;5059764;28;20088;-75
2022/09/28 12:01:00;;;;;;;;;;;15.20;99.90;;;;;;5051231;28;20044;-75
2022/09/28 12:03:44;;;;;;;1.20;1.00;;;15.20;99.90;;;;;;5052637;28;19928;-76
2022/09/28 12:06:22;;;;;;;0.60;0.60;;;15.30;99.90;;;;;;5053603;28;20502;-75
2022/09/28 12:08:59;;;;;;;0.60;0.60;;;15.40;99.90;;;;;;5055580;28;20044;-75
2022/09/28 12:11:48;;;;;;;1.10;0.82;;;15.50;99.90;;;;;;5052652;28;20072;-76
2022/09/28 12:14:26;;;;;;;0.68;0.68;;;15.40;99.90;;;;;;5059125;28;20047;-75
2022/09/28 12:17:09;;;;;;;0.80;0.80;;;15.40;99.90;;;;;;5059769;28;20087;-75
2022/09/28 12:19:47;;;;;;;1.33;0.93;;;15.50;99.90;;;;;;5048470;28;20131;-76
2022/09/28 12:22:25;;;;;;;1.15;0.63;;;15.60;99.90;;;;;;5057080;28;20036;-75
2022/09/28 12:24:55;;;;;;;0.77;0.77;;;15.60;99.90;;;;;;5057648;28;20493;-75
2022/09/28 12:27:52;;;;;;;0.80;0.57;;;15.70;99.90;;;;;;5056054;28;20051;-75
2022/09/28 12:30:20;;;;;;;2.90;0.60;;;15.80;99.90;;;;;;5055469;28;20044;-75
2022/09/28 12:33:02;;;;;;;1.05;0.60;;;15.80;99.90;;;;;;5043760;28;20657;-76
2022/09/28 12:35:46;;;;;;;1.00;0.73;;;15.90;99.90;;;;;;5051216;28;20114;-76
2022/09/28 12:38:45;;;;;;;1.48;0.80;;;16.00;99.90;;;;;;5057054;28;20056;-76
2022/09/28 12:41:38;;;;;;;1.42;0.60;;;16.20;99.90;;;;;;5052621;28;20071;-76
2022/09/28 12:44:32;;;;;;;2.00;0.75;;;16.10;99.90;;;;;;5054197;28;20063;-75
2022/09/28 12:47:14;;;;;;;1.02;0.93;;;16.00;99.90;;;;;;5050088;28;20064;-74
2022/09/28 12:50:12;;;;;;;1.20;1.08;;;16.00;99.90;;;;;;5047498;28;20044;-76
2022/09/28 12:53:06;;;;;;;0.50;0.50;;;15.90;99.90;;;;;;5051610;28;20257;-76
2022/09/28 12:56:05;;;;;;;0.90;0.80;;;16.00;99.90;;;;;;5052843;28;20147;-76
2022/09/28 12:58:58;;;;;;;1.05;0.90;;;15.90;99.90;;;;;;5053487;28;20125;-75
2022/09/28 13:01:27;;;;;;;;;;;15.80;99.90;;;;;;5056208;28;20067;-75
2022/09/28 13:04:14;;;;;;;0.80;0.70;;;15.70;99.90;;;;;;5054944;28;19971;-75
2022/09/28 13:07:01;;;;;;;0.50;0.50;;;15.60;99.90;;;;;;5054173;28;20595;-76
2022/09/28 13:09:45;;;;;;;0.60;0.60;;;15.50;99.90;;;;;;5051199;28;20322;-76
2022/09/28 13:12:20;;;;;;;1.52;0.60;;;15.30;99.90;;;;;;5049991;28;20056;-76
2022/09/28 13:14:54;;;;;;;2.80;0.95;;;15.20;99.90;;;;;;5086847;28;20055;-75
2022/09/28 13:17:37;;;;;;;1.65;1.05;;;15.10;99.90;;;;;;5053703;28;20048;-76
2022/09/28 13:20:22;;;;;;;1.55;1.15;;;14.90;99.90;;;;;;5054940;28;20573;-76
2022/09/28 13:23:06;;;;;;;1.42;1.33;;;14.50;99.90;;;;;;5045265;28;20045;-76
2022/09/28 13:25:35;;;;;;;0.80;0.80;;;14.20;99.90;;;;;;5052017;28;20052;-76
2022/09/28 13:28:04;;;;;;;0.80;0.80;;;14.00;99.90;;;;;;5055843;28;20059;-77
2022/09/28 13:30:34;;;;;;;2.05;0.77;;;13.90;99.90;;;;;;5053810;28;20044;-76
2022/09/28 13:33:04;;;;;;;0.88;0.88;;;13.90;99.90;;;;;;5051999;28;20118;-77
2022/09/28 13:35:32;;;;;;;0.80;0.80;;;14.00;99.90;;;;;;5051838;28;20482;-76
2022/09/28 13:38:16;;;;;;;1.38;0.70;;;14.00;99.90;;;;;;5053378;28;20180;-76
2022/09/28 13:41:03;;;;;;;0.85;0.85;;;14.10;99.90;;;;;;5051542;28;20041;-75
2022/09/28 13:43:34;;;;;;;0.65;0.60;;;14.10;99.90;;;;;;5049876;28;20389;-75
2022/09/28 13:46:13;;;;;;;1.77;0.65;;;14.20;99.90;;;;;;5050746;28;20137;-76